sensor_id;sensor_type;location;lat;lon;timestamp;pressure;altitude;pressure_sealevel;temperature;humidity
48553;BME280;34335;51.566;6.994;2022-07-05T00:02:02;101502.66;;;17.09;56.15
48553;BME280;34335;51.566;6.994;2022-07-05T00:04:27;101496.34;;;17.21;54.41
48553;BME280;34335;51.566;6.994;2022-07-05T00:06:53;101499.94;;;17.17;54.59
48553;BME280;34335;51.566;6.994;2022-07-05T00:09:36;101501.63;;;17.19;53.88
48553;BME280;34335;51.566;6.994;2022-07-05T00:12:02;101504.34;;;17.15;54.17
48553;BME280;34335;51.566;6.994;2022-07-05T00:14:28;101502.56;;;17.17;54.19
48553;BME280;34335;51.566;6.994;2022-07-05T00:16:53;101494.69;;;17.17;52.97
48553;BME280;34335;51.566;6.994;2022-07-05T00:19:18;101502.59;;;17.13;52.58
48553;BME280;34335;51.566;6.994;2022-07-05T00:21:44;101501.78;;;17.10;53.07
48553;BME280;34335;51.566;6.994;2022-07-05T00:24:09;101498.34;;;17.06;53.32
48553;BME280;34335;51.566;6.994;2022-07-05T00:26:35;101498.34;;;17.06;53.25
48553;BME280;34335;51.566;6.994;2022-07-05T00:29:00;101494.94;;;16.98;57.08
48553;BME280;34335;51.566;6.994;2022-07-05T00:31:25;101498.00;;;16.65;58.64
48553;BME280;34335;51.566;6.994;2022-07-05T00:33:51;101501.50;;;16.64;57.16
48553;BME280;34335;51.566;6.994;2022-07-05T00:36:16;101490.38;;;16.48;57.84
48553;BME280;34335;51.566;6.994;2022-07-05T00:38:41;101489.44;;;16.51;56.80
48553;BME280;34335;51.566;6.994;2022-07-05T00:41:07;101500.09;;;16.39;62.72
48553;BME280;34335;51.566;6.994;2022-07-05T00:43:32;101499.25;;;16.38;60.00
48553;BME280;34335;51.566;6.994;2022-07-05T00:45:57;101499.25;;;16.38;56.81
48553;BME280;34335;51.566;6.994;2022-07-05T00:48:23;101493.09;;;16.38;62.73
48553;BME280;34335;51.566;6.994;2022-07-05T00:50:50;101495.63;;;16.48;57.18
48553;BME280;34335;51.566;6.994;2022-07-05T00:53:16;101498.25;;;16.47;56.55
48553;BME280;34335;51.566;6.994;2022-07-05T00:55:43;101497.34;;;16.49;61.00
48553;BME280;34335;51.566;6.994;2022-07-05T00:58:09;101502.53;;;16.52;57.48
48553;BME280;34335;51.566;6.994;2022-07-05T01:00:35;101508.84;;;16.38;59.84
48553;BME280;34335;51.566;6.994;2022-07-05T01:03:00;101511.59;;;16.30;62.80
48553;BME280;34335;51.566;6.994;2022-07-05T01:05:27;101511.78;;;16.11;65.51
48553;BME280;34335;51.566;6.994;2022-07-05T01:07:52;101513.31;;;16.31;63.26
48553;BME280;34335;51.566;6.994;2022-07-05T01:10:18;101509.00;;;16.27;56.66
48553;BME280;34335;51.566;6.994;2022-07-05T01:12:43;101507.41;;;16.12;63.41
48553;BME280;34335;51.566;6.994;2022-07-05T01:15:09;101502.81;;;16.31;56.55
48553;BME280;34335;51.566;6.994;2022-07-05T01:17:35;101506.19;;;16.44;55.93
48553;BME280;34335;51.566;6.994;2022-07-05T01:20:06;101511.47;;;16.39;55.79
48553;BME280;34335;51.566;6.994;2022-07-05T01:22:55;101505.38;;;16.35;56.02
48553;BME280;34335;51.566;6.994;2022-07-05T01:25:26;101514.28;;;16.25;57.37
48553;BME280;34335;51.566;6.994;2022-07-05T01:27:52;101516.84;;;16.28;56.44
48553;BME280;34335;51.566;6.994;2022-07-05T01:30:18;101511.53;;;16.33;57.48
48553;BME280;34335;51.566;6.994;2022-07-05T01:32:44;101508.06;;;16.31;55.76
48553;BME280;34335;51.566;6.994;2022-07-05T01:35:10;101514.22;;;16.30;56.30
48553;BME280;34335;51.566;6.994;2022-07-05T01:37:36;101513.47;;;16.18;64.20
48553;BME280;34335;51.566;6.994;2022-07-05T01:40:03;101514.34;;;16.20;61.35
48553;BME280;34335;51.566;6.994;2022-07-05T01:42:28;101510.84;;;16.18;60.09
48553;BME280;34335;51.566;6.994;2022-07-05T01:44:54;101503.06;;;16.11;59.31
48553;BME280;34335;51.566;6.994;2022-07-05T01:47:19;101496.91;;;16.15;56.70
48553;BME280;34335;51.566;6.994;2022-07-05T01:49:48;101510.84;;;16.18;56.12
48553;BME280;34335;51.566;6.994;2022-07-05T01:52:16;101504.72;;;16.18;56.25
48553;BME280;34335;51.566;6.994;2022-07-05T01:54:43;101508.25;;;16.15;56.82
48553;BME280;34335;51.566;6.994;2022-07-05T01:57:09;101500.41;;;16.14;56.91
48553;BME280;34335;51.566;6.994;2022-07-05T01:59:36;101506.50;;;16.14;56.44
48553;BME280;34335;51.566;6.994;2022-07-05T02:02:03;101492.53;;;16.12;56.46
48553;BME280;34335;51.566;6.994;2022-07-05T02:04:29;101503.91;;;16.11;56.89
48553;BME280;34335;51.566;6.994;2022-07-05T02:06:54;101503.94;;;16.10;57.05
48553;BME280;34335;51.566;6.994;2022-07-05T02:09:20;101498.59;;;16.16;59.66
48553;BME280;34335;51.566;6.994;2022-07-05T02:11:45;101493.41;;;16.11;58.80
48553;BME280;34335;51.566;6.994;2022-07-05T02:14:11;101495.22;;;16.06;57.66
48553;BME280;34335;51.566;6.994;2022-07-05T02:16:37;101496.13;;;16.05;57.03
48553;BME280;34335;51.566;6.994;2022-07-05T02:19:02;101486.50;;;16.06;58.46
48553;BME280;34335;51.566;6.994;2022-07-05T02:21:28;101496.13;;;16.02;57.47
48553;BME280;34335;51.566;6.994;2022-07-05T02:23:54;101489.22;;;15.98;57.17
48553;BME280;34335;51.566;6.994;2022-07-05T02:26:19;101492.72;;;15.97;57.47
48553;BME280;34335;51.566;6.994;2022-07-05T02:28:45;101492.78;;;15.91;61.06
48553;BME280;34335;51.566;6.994;2022-07-05T02:31:10;101492.84;;;15.84;67.30
48553;BME280;34335;51.566;6.994;2022-07-05T02:33:36;101492.94;;;15.70;61.86
48553;BME280;34335;51.566;6.994;2022-07-05T02:36:06;101487.72;;;15.72;59.73
48553;BME280;34335;51.566;6.994;2022-07-05T02:38:32;101480.66;;;15.76;59.13
48553;BME280;34335;51.566;6.994;2022-07-05T02:40:57;101491.16;;;15.76;58.91
48553;BME280;34335;51.566;6.994;2022-07-05T02:43:22;101492.91;;;15.73;62.37
48553;BME280;34335;51.566;6.994;2022-07-05T02:45:47;101495.56;;;15.72;58.84
48553;BME280;34335;51.566;6.994;2022-07-05T02:48:13;101499.94;;;15.70;59.06
48553;BME280;34335;51.566;6.994;2022-07-05T02:50:38;101500.84;;;15.69;59.07
48553;BME280;34335;51.566;6.994;2022-07-05T02:53:03;101513.09;;;15.67;59.02
48553;BME280;34335;51.566;6.994;2022-07-05T02:55:28;101505.25;;;15.65;59.31
48553;BME280;34335;51.566;6.994;2022-07-05T02:57:54;101509.63;;;15.63;59.23
48553;BME280;34335;51.566;6.994;2022-07-05T03:00:19;101520.97;;;15.64;59.39
48553;BME280;34335;51.566;6.994;2022-07-05T03:02:44;101513.16;;;15.61;58.93
48553;BME280;34335;51.566;6.994;2022-07-05T03:05:10;101515.78;;;15.61;59.63
48553;BME280;34335;51.566;6.994;2022-07-05T03:07:35;101517.53;;;15.58;59.61
48553;BME280;34335;51.566;6.994;2022-07-05T03:10:00;101512.31;;;15.57;59.29
48553;BME280;34335;51.566;6.994;2022-07-05T03:12:26;101514.94;;;15.54;59.25
48553;BME280;34335;51.566;6.994;2022-07-05T03:14:51;101514.13;;;15.50;59.61
48553;BME280;34335;51.566;6.994;2022-07-05T03:17:16;101517.63;;;15.49;59.88
48553;BME280;34335;51.566;6.994;2022-07-05T03:19:41;101511.50;;;15.47;59.42
48553;BME280;34335;51.566;6.994;2022-07-05T03:22:07;101515.91;;;15.43;59.79
48553;BME280;34335;51.566;6.994;2022-07-05T03:24:32;101522.03;;;15.42;59.88
48553;BME280;34335;51.566;6.994;2022-07-05T03:26:57;101519.44;;;15.41;59.97
48553;BME280;34335;51.566;6.994;2022-07-05T03:29:23;101522.03;;;15.39;59.84
48553;BME280;34335;51.566;6.994;2022-07-05T03:31:48;101532.56;;;15.36;59.81
48553;BME280;34335;51.566;6.994;2022-07-05T03:34:13;101529.94;;;15.35;60.05
48553;BME280;34335;51.566;6.994;2022-07-05T03:36:39;101528.22;;;15.32;60.18
48553;BME280;34335;51.566;6.994;2022-07-05T03:39:04;101538.72;;;15.31;61.34
48553;BME280;34335;51.566;6.994;2022-07-05T03:41:29;101533.59;;;15.17;66.12
48553;BME280;34335;51.566;6.994;2022-07-05T03:43:54;101532.88;;;14.90;71.27
48553;BME280;34335;51.566;6.994;2022-07-05T03:46:20;101537.28;;;14.83;66.22
48553;BME280;34335;51.566;6.994;2022-07-05T03:48:45;101536.38;;;14.90;68.96
48553;BME280;34335;51.566;6.994;2022-07-05T03:51:10;101534.69;;;14.77;70.96
48553;BME280;34335;51.566;6.994;2022-07-05T03:53:36;101540.84;;;14.63;74.04
48553;BME280;34335;51.566;6.994;2022-07-05T03:56:03;101540.81;;;14.73;65.66
48553;BME280;34335;51.566;6.994;2022-07-05T03:58:28;101538.22;;;14.73;71.95
48553;BME280;34335;51.566;6.994;2022-07-05T04:00:53;101539.09;;;14.72;66.85
48553;BME280;34335;51.566;6.994;2022-07-05T04:03:19;101539.09;;;14.70;66.09
48553;BME280;34335;51.566;6.994;2022-07-05T04:05:44;101533.84;;;14.75;66.72
48553;BME280;34335;51.566;6.994;2022-07-05T04:08:09;101539.06;;;14.75;63.57
48553;BME280;34335;51.566;6.994;2022-07-05T04:10:35;101535.56;;;14.77;62.86
48553;BME280;34335;51.566;6.994;2022-07-05T04:13:00;101536.41;;;14.81;62.21
48553;BME280;34335;51.566;6.994;2022-07-05T04:15:25;101533.84;;;14.72;70.23
48553;BME280;34335;51.566;6.994;2022-07-05T04:17:53;101546.06;;;14.73;63.37
48553;BME280;34335;51.566;6.994;2022-07-05T04:20:19;101547.81;;;14.74;63.57
48553;BME280;34335;51.566;6.994;2022-07-05T04:22:47;101542.56;;;14.71;68.40
48553;BME280;34335;51.566;6.994;2022-07-05T04:25:13;101537.34;;;14.71;66.25
48553;BME280;34335;51.566;6.994;2022-07-05T04:27:48;101546.06;;;14.73;65.72
48553;BME280;34335;51.566;6.994;2022-07-05T04:30:14;101542.53;;;14.78;63.62
48553;BME280;34335;51.566;6.994;2022-07-05T04:32:40;101548.66;;;14.80;65.87
48553;BME280;34335;51.566;6.994;2022-07-05T04:35:06;101551.22;;;14.87;64.09
48553;BME280;34335;51.566;6.994;2022-07-05T04:37:32;101554.69;;;14.87;70.63
48553;BME280;34335;51.566;6.994;2022-07-05T04:39:57;101558.25;;;14.77;68.60
48553;BME280;34335;51.566;6.994;2022-07-05T04:42:22;101553.88;;;14.80;68.40
48553;BME280;34335;51.566;6.994;2022-07-05T04:44:47;101551.16;;;14.98;65.66
48553;BME280;34335;51.566;6.994;2022-07-05T04:47:13;101557.22;;;15.06;67.10
48553;BME280;34335;51.566;6.994;2022-07-05T04:49:38;101553.75;;;15.02;69.29
48553;BME280;34335;51.566;6.994;2022-07-05T04:52:03;101552.00;;;15.04;69.41
48553;BME280;34335;51.566;6.994;2022-07-05T04:54:29;101543.22;;;15.13;69.37
48553;BME280;34335;51.566;6.994;2022-07-05T04:56:54;101554.47;;;15.27;66.49
48553;BME280;34335;51.566;6.994;2022-07-05T04:59:19;101555.34;;;15.28;70.97
48553;BME280;34335;51.566;6.994;2022-07-05T05:01:45;101558.81;;;15.30;67.87
48553;BME280;34335;51.566;6.994;2022-07-05T05:04:10;101563.06;;;15.45;68.79
48553;BME280;34335;51.566;6.994;2022-07-05T05:06:35;101564.56;;;15.74;68.77
48553;BME280;34335;51.566;6.994;2022-07-05T05:09:01;101567.91;;;15.98;68.52
48553;BME280;34335;51.566;6.994;2022-07-05T05:11:27;101571.25;;;16.12;67.88
48553;BME280;34335;51.566;6.994;2022-07-05T05:13:52;101565.88;;;16.25;67.93
48553;BME280;34335;51.566;6.994;2022-07-05T05:16:17;101563.28;;;16.23;67.49
48553;BME280;34335;51.566;6.994;2022-07-05T05:18:43;101570.22;;;16.29;66.53
48553;BME280;34335;51.566;6.994;2022-07-05T05:21:08;101562.28;;;16.33;67.73
48553;BME280;34335;51.566;6.994;2022-07-05T05:23:33;101561.19;;;16.53;67.35
48553;BME280;34335;51.566;6.994;2022-07-05T05:25:58;101562.63;;;16.76;66.40
48553;BME280;34335;51.566;6.994;2022-07-05T05:28:24;101562.56;;;16.82;65.22
48553;BME280;34335;51.566;6.994;2022-07-05T05:30:49;101557.38;;;16.77;64.70
48553;BME280;34335;51.566;6.994;2022-07-05T05:33:14;101566.09;;;16.81;65.21
48553;BME280;34335;51.566;6.994;2022-07-05T05:35:41;101575.56;;;16.94;64.35
48553;BME280;34335;51.566;6.994;2022-07-05T05:38:06;101567.56;;;17.02;64.28
48553;BME280;34335;51.566;6.994;2022-07-05T05:40:31;101578.72;;;17.21;64.47
48553;BME280;34335;51.566;6.994;2022-07-05T05:42:58;101574.94;;;17.36;63.28
48553;BME280;34335;51.566;6.994;2022-07-05T05:45:23;101579.22;;;17.45;62.79
48553;BME280;34335;51.566;6.994;2022-07-05T05:47:54;101574.47;;;17.67;63.47
48553;BME280;34335;51.566;6.994;2022-07-05T05:50:21;101567.84;;;17.98;62.37
48553;BME280;34335;51.566;6.994;2022-07-05T05:52:46;101576.09;;;18.26;63.83
48553;BME280;34335;51.566;6.994;2022-07-05T05:55:12;101580.47;;;18.27;63.03
48553;BME280;34335;51.566;6.994;2022-07-05T05:57:37;101582.28;;;18.24;63.03
48553;BME280;34335;51.566;6.994;2022-07-05T06:00:06;101581.06;;;18.40;62.92
48553;BME280;34335;51.566;6.994;2022-07-05T06:02:32;101575.63;;;18.51;63.40
48553;BME280;34335;51.566;6.994;2022-07-05T06:04:58;101581.69;;;18.08;59.14
48553;BME280;34335;51.566;6.994;2022-07-05T06:07:23;101581.16;;;18.35;61.24
48553;BME280;34335;51.566;6.994;2022-07-05T06:09:48;101586.25;;;18.45;60.05
48553;BME280;34335;51.566;6.994;2022-07-05T06:12:14;101588.00;;;18.88;60.78
48553;BME280;34335;51.566;6.994;2022-07-05T06:14:39;101586.53;;;18.75;58.72
48553;BME280;34335;51.566;6.994;2022-07-05T06:17:05;101588.06;;;18.85;59.20
48553;BME280;34335;51.566;6.994;2022-07-05T06:19:30;101596.66;;;18.96;60.90
48553;BME280;34335;51.566;6.994;2022-07-05T06:21:55;101598.81;;;19.18;58.79
48553;BME280;34335;51.566;6.994;2022-07-05T06:24:21;101598.47;;;18.91;58.77
48553;BME280;34335;51.566;6.994;2022-07-05T06:26:46;101603.34;;;19.11;58.97
48553;BME280;34335;51.566;6.994;2022-07-05T06:29:11;101609.41;;;19.53;59.83
48553;BME280;34335;51.566;6.994;2022-07-05T06:31:37;101608.72;;;19.44;59.38
48553;BME280;34335;51.566;6.994;2022-07-05T06:34:02;101608.66;;;19.48;59.18
48553;BME280;34335;51.566;6.994;2022-07-05T06:36:27;101605.50;;;19.69;57.93
48553;BME280;34335;51.566;6.994;2022-07-05T06:38:52;101610.31;;;19.89;56.14
48553;BME280;34335;51.566;6.994;2022-07-05T06:41:18;101607.13;;;20.11;56.57
48553;BME280;34335;51.566;6.994;2022-07-05T06:43:43;101611.72;;;20.03;55.33
48553;BME280;34335;51.566;6.994;2022-07-05T06:46:08;101612.69;;;19.62;55.17
48553;BME280;34335;51.566;6.994;2022-07-05T06:48:33;101611.97;;;19.56;56.10
48553;BME280;34335;51.566;6.994;2022-07-05T06:50:59;101617.16;;;19.97;56.98
48553;BME280;34335;51.566;6.994;2022-07-05T06:53:24;101620.22;;;19.80;56.00
48553;BME280;34335;51.566;6.994;2022-07-05T06:55:49;101613.06;;;20.19;56.91
48553;BME280;34335;51.566;6.994;2022-07-05T06:58:15;101614.16;;;19.76;56.80
48553;BME280;34335;51.566;6.994;2022-07-05T07:00:41;101618.38;;;19.45;55.69
48553;BME280;34335;51.566;6.994;2022-07-05T07:03:07;101626.34;;;19.80;56.56
48553;BME280;34335;51.566;6.994;2022-07-05T07:05:32;101615.59;;;19.14;56.30
48553;BME280;34335;51.566;6.994;2022-07-05T07:07:57;101625.72;;;19.70;55.06
48553;BME280;34335;51.566;6.994;2022-07-05T07:10:41;101633.06;;;20.28;54.96
48553;BME280;34335;51.566;6.994;2022-07-05T07:13:06;101624.91;;;20.69;54.37
48553;BME280;34335;51.566;6.994;2022-07-05T07:15:32;101631.56;;;20.82;50.97
48553;BME280;34335;51.566;6.994;2022-07-05T07:17:58;101619.91;;;21.20;50.30
48553;BME280;34335;51.566;6.994;2022-07-05T07:20:24;101629.28;;;20.70;48.50
48553;BME280;34335;51.566;6.994;2022-07-05T07:22:49;101626.78;;;19.99;49.00
48553;BME280;34335;51.566;6.994;2022-07-05T07:25:15;101635.63;;;19.60;52.44
48553;BME280;34335;51.566;6.994;2022-07-05T07:27:45;101626.72;;;20.67;54.33
48553;BME280;34335;51.566;6.994;2022-07-05T07:30:15;101628.41;;;21.01;53.27
48553;BME280;34335;51.566;6.994;2022-07-05T07:32:41;101626.13;;;21.19;53.62
48553;BME280;34335;51.566;6.994;2022-07-05T07:35:08;101626.56;;;21.61;53.95
48553;BME280;34335;51.566;6.994;2022-07-05T07:37:33;101634.06;;;20.57;49.70
48553;BME280;34335;51.566;6.994;2022-07-05T07:39:59;101634.31;;;20.79;52.29
48553;BME280;34335;51.566;6.994;2022-07-05T07:42:26;101632.66;;;21.35;54.09
48553;BME280;34335;51.566;6.994;2022-07-05T07:44:52;101633.41;;;20.80;50.88
48553;BME280;34335;51.566;6.994;2022-07-05T07:47:17;101642.69;;;20.94;54.66
48553;BME280;34335;51.566;6.994;2022-07-05T07:49:42;101630.72;;;21.12;50.92
48553;BME280;34335;51.566;6.994;2022-07-05T07:52:08;101640.78;;;21.84;51.68
48553;BME280;34335;51.566;6.994;2022-07-05T07:54:33;101639.94;;;21.55;48.66
48553;BME280;34335;51.566;6.994;2022-07-05T07:56:58;101632.69;;;21.89;52.46
48553;BME280;34335;51.566;6.994;2022-07-05T07:59:26;101638.09;;;22.13;51.79
48553;BME280;34335;51.566;6.994;2022-07-05T08:01:52;101637.81;;;21.68;47.89
48553;BME280;34335;51.566;6.994;2022-07-05T08:04:17;101635.81;;;21.18;47.80
48553;BME280;34335;51.566;6.994;2022-07-05T08:06:43;101641.66;;;21.56;49.39
48553;BME280;34335;51.566;6.994;2022-07-05T08:09:09;101639.00;;;21.29;47.60
48553;BME280;34335;51.566;6.994;2022-07-05T08:11:34;101633.91;;;22.05;51.81
48553;BME280;34335;51.566;6.994;2022-07-05T08:13:59;101633.75;;;22.84;50.90
48553;BME280;34335;51.566;6.994;2022-07-05T08:18:50;101645.34;;;22.82;49.66
48553;BME280;34335;51.566;6.994;2022-07-05T08:21:34;101646.59;;;22.48;46.54
48553;BME280;34335;51.566;6.994;2022-07-05T08:24:06;101642.81;;;22.03;45.59
48553;BME280;34335;51.566;6.994;2022-07-05T08:26:33;101645.84;;;21.92;45.91
48553;BME280;34335;51.566;6.994;2022-07-05T08:28:59;101645.59;;;21.44;47.87
48553;BME280;34335;51.566;6.994;2022-07-05T08:31:27;101642.97;;;21.71;44.28
48553;BME280;34335;51.566;6.994;2022-07-05T08:33:52;101645.22;;;22.61;45.34
48553;BME280;34335;51.566;6.994;2022-07-05T08:36:18;101647.88;;;22.61;45.82
48553;BME280;34335;51.566;6.994;2022-07-05T08:38:43;101645.94;;;22.90;45.39
48553;BME280;34335;51.566;6.994;2022-07-05T08:41:10;101640.94;;;23.50;47.40
48553;BME280;34335;51.566;6.994;2022-07-05T08:43:45;101634.41;;;22.91;45.13
48553;BME280;34335;51.566;6.994;2022-07-05T08:46:11;101635.13;;;22.95;42.03
48553;BME280;34335;51.566;6.994;2022-07-05T08:48:37;101635.97;;;22.97;46.63
48553;BME280;34335;51.566;6.994;2022-07-05T08:53:40;101637.25;;;22.85;44.52
48553;BME280;34335;51.566;6.994;2022-07-05T08:56:08;101642.00;;;23.00;45.56
48553;BME280;34335;51.566;6.994;2022-07-05T08:58:34;101649.44;;;23.81;42.48
48553;BME280;34335;51.566;6.994;2022-07-05T09:01:00;101639.09;;;23.07;43.56
48553;BME280;34335;51.566;6.994;2022-07-05T09:03:31;101637.50;;;24.14;45.42
48553;BME280;34335;51.566;6.994;2022-07-05T09:05:58;101639.25;;;24.13;42.98
48553;BME280;34335;51.566;6.994;2022-07-05T09:08:26;101646.84;;;24.22;43.57
48553;BME280;34335;51.566;6.994;2022-07-05T09:10:51;101639.59;;;24.26;40.64
48553;BME280;34335;51.566;6.994;2022-07-05T09:13:17;101636.28;;;24.61;43.99
48553;BME280;34335;51.566;6.994;2022-07-05T09:15:42;101636.72;;;24.10;41.61
48553;BME280;34335;51.566;6.994;2022-07-05T09:18:09;101641.53;;;24.22;41.87
48553;BME280;34335;51.566;6.994;2022-07-05T09:20:35;101631.53;;;23.86;42.75
48553;BME280;34335;51.566;6.994;2022-07-05T09:23:01;101622.94;;;23.79;43.55
48553;BME280;34335;51.566;6.994;2022-07-05T09:25:29;101633.06;;;23.03;41.70
48553;BME280;34335;51.566;6.994;2022-07-05T09:30:38;101635.91;;;24.70;43.13
48553;BME280;34335;51.566;6.994;2022-07-05T09:33:08;101642.59;;;23.98;41.49
48553;BME280;34335;51.566;6.994;2022-07-05T09:35:38;101639.00;;;23.99;42.53
48553;BME280;34335;51.566;6.994;2022-07-05T09:38:05;101638.56;;;24.49;40.90
48553;BME280;34335;51.566;6.994;2022-07-05T09:40:32;101642.03;;;24.51;42.42
48553;BME280;34335;51.566;6.994;2022-07-05T09:43:15;101641.47;;;24.03;39.06
48553;BME280;34335;51.566;6.994;2022-07-05T09:45:53;101633.84;;;22.83;37.55
48553;BME280;34335;51.566;6.994;2022-07-05T09:48:19;101634.72;;;23.29;39.40
48553;BME280;34335;51.566;6.994;2022-07-05T09:50:44;101643.03;;;24.49;38.50
48553;BME280;34335;51.566;6.994;2022-07-05T09:53:10;101638.84;;;24.43;40.61
48553;BME280;34335;51.566;6.994;2022-07-05T09:55:37;101637.28;;;23.98;38.12
48553;BME280;34335;51.566;6.994;2022-07-05T09:58:03;101644.75;;;24.50;40.79
48553;BME280;34335;51.566;6.994;2022-07-05T10:00:28;101646.53;;;23.87;40.24
48553;BME280;34335;51.566;6.994;2022-07-05T10:02:57;101639.66;;;23.39;41.07
48553;BME280;34335;51.566;6.994;2022-07-05T10:05:30;101637.22;;;23.77;38.97
48553;BME280;34335;51.566;6.994;2022-07-05T10:07:57;101646.38;;;24.33;37.83
48553;BME280;34335;51.566;6.994;2022-07-05T10:10:28;101651.94;;;24.48;37.30
48553;BME280;34335;51.566;6.994;2022-07-05T10:12:56;101639.22;;;24.75;34.17
48553;BME280;34335;51.566;6.994;2022-07-05T10:15:24;101629.38;;;24.96;33.25
48553;BME280;34335;51.566;6.994;2022-07-05T10:18:07;101639.88;;;24.99;33.99
48553;BME280;34335;51.566;6.994;2022-07-05T10:20:45;101643.31;;;24.42;34.49
48553;BME280;34335;51.566;6.994;2022-07-05T10:25:39;101633.91;;;24.75;34.36
48553;BME280;34335;51.566;6.994;2022-07-05T10:28:06;101631.81;;;25.57;34.12
48553;BME280;34335;51.566;6.994;2022-07-05T10:30:32;101636.84;;;24.48;33.96
48553;BME280;34335;51.566;6.994;2022-07-05T10:32:59;101630.84;;;24.64;35.63
48553;BME280;34335;51.566;6.994;2022-07-05T10:35:26;101641.91;;;24.34;37.07
48553;BME280;34335;51.566;6.994;2022-07-05T10:37:53;101638.75;;;23.40;36.76
48553;BME280;34335;51.566;6.994;2022-07-05T10:40:18;101630.53;;;24.91;37.57
48553;BME280;34335;51.566;6.994;2022-07-05T10:42:51;101638.00;;;24.42;35.17
48553;BME280;34335;51.566;6.994;2022-07-05T10:45:32;101639.06;;;24.57;38.12
48553;BME280;34335;51.566;6.994;2022-07-05T10:48:18;101637.53;;;25.11;36.42
48553;BME280;34335;51.566;6.994;2022-07-05T10:50:52;101634.91;;;24.92;37.47
48553;BME280;34335;51.566;6.994;2022-07-05T10:53:20;101646.25;;;24.95;38.34
48553;BME280;34335;51.566;6.994;2022-07-05T10:55:58;101639.66;;;24.85;36.72
48553;BME280;34335;51.566;6.994;2022-07-05T10:58:26;101653.38;;;23.50;38.53
48553;BME280;34335;51.566;6.994;2022-07-05T11:06:30;101642.38;;;25.22;38.49
48553;BME280;34335;51.566;6.994;2022-07-05T11:11:31;101640.13;;;23.26;39.49
48553;BME280;34335;51.566;6.994;2022-07-05T11:13:58;101635.84;;;24.51;39.43
48553;BME280;34335;51.566;6.994;2022-07-05T11:16:28;101633.13;;;24.52;40.23
48553;BME280;34335;51.566;6.994;2022-07-05T11:19:11;101637.13;;;24.01;40.65
48553;BME280;34335;51.566;6.994;2022-07-05T11:21:38;101643.25;;;23.80;39.99
48553;BME280;34335;51.566;6.994;2022-07-05T11:24:22;101641.81;;;23.73;40.49
48553;BME280;34335;51.566;6.994;2022-07-05T11:26:49;101638.06;;;24.20;39.47
48553;BME280;34335;51.566;6.994;2022-07-05T11:29:39;101630.31;;;24.76;38.60
48553;BME280;34335;51.566;6.994;2022-07-05T11:32:06;101631.22;;;24.15;37.63
48553;BME280;34335;51.566;6.994;2022-07-05T11:34:34;101631.41;;;23.89;39.02
48553;BME280;34335;51.566;6.994;2022-07-05T11:37:25;101624.63;;;24.44;38.38
48553;BME280;34335;51.566;6.994;2022-07-05T11:42:29;101615.84;;;25.57;37.37
48553;BME280;34335;51.566;6.994;2022-07-05T11:44:55;101616.38;;;24.50;38.66
48553;BME280;34335;51.566;6.994;2022-07-05T11:47:20;101608.28;;;24.72;37.90
48553;BME280;34335;51.566;6.994;2022-07-05T11:49:58;101616.41;;;24.88;38.26
48553;BME280;34335;51.566;6.994;2022-07-05T11:52:28;101596.25;;;25.58;36.67
48553;BME280;34335;51.566;6.994;2022-07-05T11:54:54;101599.78;;;25.22;35.00
48553;BME280;34335;51.566;6.994;2022-07-05T11:57:20;101602.00;;;26.03;33.44
48553;BME280;34335;51.566;6.994;2022-07-05T11:59:46;101589.59;;;26.53;33.50
48553;BME280;34335;51.566;6.994;2022-07-05T12:02:12;101587.13;;;26.16;36.46
48553;BME280;34335;51.566;6.994;2022-07-05T12:04:37;101587.84;;;26.52;33.48
48553;BME280;34335;51.566;6.994;2022-07-05T12:07:03;101596.91;;;26.49;33.11
48553;BME280;34335;51.566;6.994;2022-07-05T12:09:32;101590.81;;;26.63;35.64
48553;BME280;34335;51.566;6.994;2022-07-05T12:12:21;101595.97;;;25.99;38.06
48553;BME280;34335;51.566;6.994;2022-07-05T12:15:07;101590.69;;;24.89;35.11
48553;BME280;34335;51.566;6.994;2022-07-05T12:17:37;101584.50;;;25.44;35.54
48553;BME280;34335;51.566;6.994;2022-07-05T12:20:04;101590.41;;;25.86;37.10
48553;BME280;34335;51.566;6.994;2022-07-05T12:24:55;101589.47;;;25.87;37.88
48553;BME280;34335;51.566;6.994;2022-07-05T12:27:23;101589.41;;;25.54;34.54
48553;BME280;34335;51.566;6.994;2022-07-05T12:29:49;101590.25;;;24.79;38.16
48553;BME280;34335;51.566;6.994;2022-07-05T12:32:14;101591.97;;;25.73;36.99
48553;BME280;34335;51.566;6.994;2022-07-05T12:34:40;101594.25;;;25.63;34.82
48553;BME280;34335;51.566;6.994;2022-07-05T12:37:05;101579.56;;;26.40;36.19
48553;BME280;34335;51.566;6.994;2022-07-05T12:39:31;101581.69;;;26.51;35.36
48553;BME280;34335;51.566;6.994;2022-07-05T12:41:56;101582.38;;;27.19;33.65
48553;BME280;34335;51.566;6.994;2022-07-05T12:44:21;101577.84;;;26.89;32.58
48553;BME280;34335;51.566;6.994;2022-07-05T12:46:47;101580.97;;;26.97;33.63
48553;BME280;34335;51.566;6.994;2022-07-05T12:49:15;101583.38;;;26.36;36.91
48553;BME280;34335;51.566;6.994;2022-07-05T12:51:43;101577.91;;;26.04;34.81
48553;BME280;34335;51.566;6.994;2022-07-05T12:54:19;101583.03;;;25.91;34.45
48553;BME280;34335;51.566;6.994;2022-07-05T12:57:04;101582.03;;;26.61;35.44
48553;BME280;34335;51.566;6.994;2022-07-05T13:00:05;101579.00;;;27.78;35.58
48553;BME280;34335;51.566;6.994;2022-07-05T13:02:39;101575.00;;;26.92;31.67
48553;BME280;34335;51.566;6.994;2022-07-05T13:05:07;101583.25;;;26.04;34.17
48553;BME280;34335;51.566;6.994;2022-07-05T13:07:33;101576.56;;;26.80;34.07
48553;BME280;34335;51.566;6.994;2022-07-05T13:10:22;101574.31;;;27.04;34.49
48553;BME280;34335;51.566;6.994;2022-07-05T13:12:48;101576.72;;;27.25;35.40
48553;BME280;34335;51.566;6.994;2022-07-05T13:15:14;101576.75;;;26.93;33.17